Time;durP1;ratioP1;P1;durP2;ratioP2;P2;SDS_P1;SDS_P2;PMS_P1;PMS_P2;Temp;Humidity;BMP_temperature;BMP_pressure;BME280_temperature;BME280_humidity;BME280_pressure;Samples;Min_cycle;Max_cycle;Signal;HPM_P1;HPM_P2
2022/05/11 00:00:40;;;;;;;3.75;2.78;;;;;;;17.70;56.84;101201.72;5115629;28;20046;-67
2022/05/11 00:03:05;;;;;;;8.23;2.70;;;;;;;17.74;57.09;101198.91;5115415;28;20031;-67
2022/05/11 00:05:32;;;;;;;4.63;2.55;;;;;;;17.76;57.60;101204.16;5115107;28;20031;-67
2022/05/11 00:07:57;;;;;;;5.97;2.90;;;;;;;17.64;57.82;101204.63;5115547;28;20404;-66
2022/05/11 00:10:23;;;;;;;8.85;2.88;;;;;;;17.54;57.18;101182.88;5115203;28;20024;-67
2022/05/11 00:12:49;;;;;;;5.05;2.40;;;;;;;17.64;58.26;101200.19;5114004;28;20429;-68
2022/05/11 00:15:17;;;;;;;5.47;2.53;;;;;;;17.55;57.84;101187.25;5113282;28;20028;-68
2022/05/11 00:17:43;;;;;;;8.52;2.70;;;;;;;17.54;57.64;101187.28;5113681;28;20347;-68
2022/05/11 00:20:09;;;;;;;6.35;2.88;;;;;;;17.51;57.54;101182.97;5113626;28;20069;-68
2022/05/11 00:22:36;;;;;;;9.32;3.08;;;;;;;17.52;56.99;101174.13;5113679;28;20358;-67
2022/05/11 00:25:03;;;;;;;5.82;2.70;;;;;;;17.51;57.58;101182.97;5115970;28;20031;-68
2022/05/11 00:27:28;;;;;;;4.90;2.92;;;;;;;17.54;57.43;101180.22;5117393;28;20126;-68
2022/05/11 00:29:53;;;;;;;5.00;3.00;;;;;;;17.52;57.44;101173.25;5117600;28;20130;-66
2022/05/11 00:32:18;;;;;;;4.50;2.33;;;;;;;17.46;57.55;101170.84;5117936;28;20027;-67
2022/05/11 00:34:44;;;;;;;5.50;2.50;;;;;;;17.50;57.23;101168.03;5117842;28;20062;-69
2022/05/11 00:37:09;;;;;;;4.60;2.47;;;;;;;17.47;57.96;101160.22;5117645;28;20320;-68
2022/05/11 00:39:35;;;;;;;6.57;2.42;;;;;;;17.49;56.73;101168.09;5114609;28;20039;-68
2022/05/11 00:42:02;;;;;;;6.13;2.60;;;;;;;17.47;56.61;101169.94;5097032;28;20047;-66
2022/05/11 00:44:27;;;;;;;6.45;2.67;;;;;;;17.45;56.77;101153.25;5097099;28;20363;-66
2022/05/11 00:46:58;;;;;;;4.00;2.40;;;;;;;17.50;57.20;101154.78;5097234;28;20036;-67
2022/05/11 00:49:38;;;;;;;3.60;2.37;;;;;;;17.48;56.86;101153.16;5097116;28;20032;-67
2022/05/11 00:52:12;;;;;;;6.18;2.53;;;;;;;17.51;56.62;101147.72;5096851;28;20056;-67
2022/05/11 00:54:47;;;;;;;6.82;3.00;;;;;;;17.41;56.55;101133.97;5096867;28;20039;-67
2022/05/11 00:57:29;;;;;;;6.15;2.65;;;;;;;17.44;56.81;101139.16;5096827;28;20036;-67
2022/05/11 00:59:54;;;;;;;6.18;2.40;;;;;;;17.43;57.57;101141.84;5096809;28;20454;-67
2022/05/11 01:02:22;;;;;;;7.40;2.55;;;;;;;17.44;57.30;101140.94;5096826;28;20028;-67
2022/05/11 01:04:53;;;;;;;5.43;2.35;;;;;;;17.46;57.30;101144.41;5096612;28;20055;-68
2022/05/11 01:07:18;;;;;;;5.28;2.58;;;;;;;17.41;57.85;101136.63;5096520;28;20047;-68
2022/05/11 01:09:43;;;;;;;4.93;2.10;;;;;;;17.39;57.48;101133.16;5096553;28;20032;-68
2022/05/11 01:12:14;;;;;;;4.38;2.30;;;;;;;17.43;58.05;101137.44;5096548;28;20431;-67
2022/05/11 01:14:43;;;;;;;5.30;2.10;;;;;;;17.41;57.51;101123.41;5093275;28;20463;-67
2022/05/11 01:17:10;;;;;;;6.20;2.28;;;;;;;17.42;57.57;101125.13;5093115;28;20101;-67
2022/05/11 01:19:40;;;;;;;7.72;2.20;;;;;;;17.43;57.42;101129.50;5096139;28;20424;-69
2022/05/11 01:22:16;;;;;;;5.65;2.15;;;;;;;17.35;57.80;101115.69;5096334;28;20043;-68
2022/05/11 01:24:43;;;;;;;3.85;2.28;;;;;;;17.31;57.45;101116.72;5096210;28;20043;-66
2022/05/11 01:27:39;;;;;;;3.90;2.10;;;;;;;17.34;58.12;101117.44;5095497;28;20483;-68
2022/05/11 01:30:08;;;;;;;5.32;2.20;;;;;;;17.35;58.53;101113.88;5096115;28;20048;-66
2022/05/11 01:32:34;;;;;;;5.40;2.30;;;;;;;17.29;58.61;101105.34;5096053;28;20043;-68
2022/05/11 01:35:17;;;;;;;4.07;2.30;;;;;;;17.29;58.70;101119.44;5095873;28;20107;-68
2022/05/11 01:37:59;;;;;;;3.22;1.90;;;;;;;17.24;58.44;101121.38;5096051;28;20115;-67
2022/05/11 01:40:25;;;;;;;6.50;2.10;;;;;;;17.28;58.98;101115.06;5095962;28;20047;-67
2022/05/11 01:42:50;;;;;;;4.88;1.90;;;;;;;17.25;59.76;101115.16;5096107;28;20427;-66
2022/05/11 01:45:16;;;;;;;5.50;2.25;;;;;;;17.22;58.93;101109.97;5095967;28;20047;-67
2022/05/11 01:47:41;;;;;;;4.30;2.17;;;;;;;17.26;59.10;101123.97;5096380;28;20549;-65
2022/05/11 01:50:07;;;;;;;4.70;2.10;;;;;;;17.24;58.89;101115.22;5097379;28;20024;-66
2022/05/11 01:52:32;;;;;;;5.72;2.50;;;;;;;17.21;58.58;101113.53;5097305;28;20270;-67
2022/05/11 01:54:57;;;;;;;5.10;2.33;;;;;;;17.20;58.88;101105.66;5097620;28;20032;-67
2022/05/11 01:57:24;;;;;;;5.07;2.33;;;;;;;17.15;58.97;101108.47;5097309;28;20365;-66
2022/05/11 01:59:49;;;;;;;5.93;2.70;;;;;;;17.11;58.63;101095.44;5097110;28;20040;-66
2022/05/11 02:02:15;;;;;;;5.03;2.45;;;;;;;17.16;59.03;101114.63;5097278;28;20038;-67
2022/05/11 02:10:09;;;;;;;5.63;2.65;;;;;;;17.14;58.97;101104.13;5097172;28;20104;-66
2022/05/11 02:12:36;;;;;;;4.55;2.40;;;;;;;17.14;59.76;101100.63;5097140;28;20103;-69
2022/05/11 02:15:02;;;;;;;4.78;2.80;;;;;;;17.11;59.31;101106.00;5096813;28;20112;-68
2022/05/11 02:17:27;;;;;;;5.82;2.67;;;;;;;17.10;59.67;101099.00;5096582;28;20032;-66
2022/05/11 02:19:52;;;;;;;5.90;2.70;;;;;;;17.16;59.11;101102.25;5097368;28;20055;-69
2022/05/11 02:22:18;;;;;;;3.73;2.57;;;;;;;17.13;59.37;101096.25;5096661;28;20285;-68
2022/05/11 02:24:43;;;;;;;6.97;2.70;;;;;;;17.12;59.65;101094.50;5097115;28;20274;-68
2022/05/11 02:27:08;;;;;;;3.87;2.67;;;;;;;17.08;59.73;101099.03;5096867;28;20701;-68
2022/05/11 02:29:33;;;;;;;6.32;2.97;;;;;;;17.11;59.65;101093.66;5096264;28;20280;-68
2022/05/11 02:31:59;;;;;;;6.63;3.10;;;;;;;17.11;59.67;101098.06;5096596;28;20036;-66
2022/05/11 02:37:08;;;;;;;6.53;2.90;;;;;;;17.08;59.65;101092.88;5095987;28;20046;-68
2022/05/11 02:39:34;;;;;;;5.65;2.80;;;;;;;17.05;59.57;101096.50;5096701;28;20424;-68
2022/05/11 02:42:00;;;;;;;5.80;2.70;;;;;;;17.05;59.75;101099.16;5096437;28;20039;-67
2022/05/11 02:44:26;;;;;;;6.45;2.88;;;;;;;17.02;59.70;101094.84;5096065;28;20028;-67
2022/05/11 02:46:51;;;;;;;7.28;3.00;;;;;;;16.98;60.01;101090.56;5096198;28;20032;-66
2022/05/11 02:49:17;;;;;;;4.03;2.73;;;;;;;16.98;59.97;101087.91;5096412;28;20035;-67
2022/05/11 02:51:42;;;;;;;5.75;2.60;;;;;;;17.00;59.95;101093.16;5096428;28;20258;-68
2022/05/11 02:54:07;;;;;;;4.47;2.70;;;;;;;17.00;60.07;101096.66;5096218;28;20027;-67
2022/05/11 02:56:32;;;;;;;5.57;2.55;;;;;;;16.93;60.08;101087.25;5096019;28;20024;-67
2022/05/11 02:58:59;;;;;;;4.27;2.67;;;;;;;16.95;60.32;101090.69;5096043;28;20128;-67
2022/05/11 03:01:24;;;;;;;3.95;2.35;;;;;;;16.95;60.19;101093.34;5096479;28;20285;-66
2022/05/11 03:03:49;;;;;;;4.68;2.67;;;;;;;16.95;60.30;101089.84;5096122;28;20036;-68
2022/05/11 03:06:15;;;;;;;5.60;2.90;;;;;;;16.89;60.13;101085.63;5095701;28;20039;-67
2022/05/11 03:08:40;;;;;;;4.88;2.58;;;;;;;16.87;60.62;101089.22;5096139;28;20024;-67
2022/05/11 03:11:05;;;;;;;3.28;2.45;;;;;;;16.84;60.96;101078.75;5095892;28;20024;-68
2022/05/11 03:13:31;;;;;;;4.25;2.33;;;;;;;16.85;60.67;101069.91;5095665;28;20101;-67
2022/05/11 03:15:57;;;;;;;5.40;2.50;;;;;;;16.86;60.55;101072.50;5094935;28;20040;-67
2022/05/11 03:18:22;;;;;;;4.45;2.50;;;;;;;16.82;60.87;101060.31;5095404;28;20035;-67
2022/05/11 03:20:47;;;;;;;8.90;2.70;;;;;;;16.84;60.85;101068.19;5095897;28;20031;-68
2022/05/11 03:23:12;;;;;;;7.25;2.47;;;;;;;16.85;61.18;101070.78;5095747;28;20020;-67
2022/05/11 03:25:37;;;;;;;4.97;2.43;;;;;;;16.82;61.11;101059.44;5096132;28;20036;-67
2022/05/11 03:28:03;;;;;;;4.90;2.60;;;;;;;16.84;60.96;101063.75;5095432;28;20598;-67
2022/05/11 03:30:28;;;;;;;4.32;2.60;;;;;;;16.76;61.48;101059.69;5092361;28;20338;-67
2022/05/11 03:35:37;;;;;;;5.25;2.60;;;;;;;16.77;61.40;101057.00;5095394;28;20047;-68
2022/05/11 03:38:04;;;;;;;5.22;2.70;;;;;;;16.73;61.18;101054.50;5095334;28;20371;-67
2022/05/11 03:40:29;;;;;;;4.18;2.03;;;;;;;16.75;61.23;101057.97;5095422;28;20071;-67
2022/05/11 03:42:54;;;;;;;5.20;2.20;;;;;;;16.75;61.41;101042.97;5095310;28;20036;-68
2022/05/11 03:45:23;;;;;;;4.72;2.60;;;;;;;16.72;61.49;101055.41;5095111;28;20357;-66
2022/05/11 03:47:49;;;;;;;3.55;2.30;;;;;;;16.75;61.47;101048.25;5095395;28;20028;-68
2022/05/11 03:50:17;;;;;;;2.95;2.20;;;;;;;16.69;61.71;101046.69;5095425;28;20039;-67
2022/05/11 03:52:42;;;;;;;6.95;2.67;;;;;;;16.64;61.29;101043.31;5095515;28;20032;-66
2022/05/11 03:55:10;;;;;;;5.70;2.30;;;;;;;16.63;61.12;101038.94;5095169;28;20358;-67
2022/05/11 03:57:37;;;;;;;4.55;2.20;;;;;;;16.65;61.71;101038.91;5095255;28;20032;-68
2022/05/11 04:00:04;;;;;;;4.32;2.20;;;;;;;16.58;61.89;101032.09;5095068;28;20036;-67
2022/05/11 04:02:29;;;;;;;5.28;2.28;;;;;;;16.60;61.75;101043.47;5095122;28;20109;-67
2022/05/11 04:04:54;;;;;;;4.67;1.97;;;;;;;16.49;62.28;101035.03;5095060;28;20040;-68
2022/05/11 04:07:19;;;;;;;5.27;2.43;;;;;;;16.62;62.31;101044.28;5095135;28;20284;-66
2022/05/11 04:09:45;;;;;;;4.33;2.23;;;;;;;16.55;62.32;101046.28;5094779;28;20266;-68
2022/05/11 04:12:10;;;;;;;3.10;2.10;;;;;;;16.54;62.76;101038.41;5094994;28;20266;-67
2022/05/11 04:14:36;;;;;;;6.45;2.53;;;;;;;16.48;63.00;101042.09;5095098;28;20715;-67
2022/05/11 04:17:01;;;;;;;4.85;2.05;;;;;;;16.49;62.86;101035.03;5094980;28;20020;-66
2022/05/11 04:19:27;;;;;;;7.22;2.40;;;;;;;16.42;62.78;101039.69;5094680;28;20443;-68
2022/05/11 04:21:53;;;;;;;3.75;2.20;;;;;;;16.36;63.22;101034.59;5094977;28;20406;-66
2022/05/11 04:24:18;;;;;;;5.18;2.42;;;;;;;16.30;63.85;101035.66;5095207;28;20059;-67
2022/05/11 04:26:43;;;;;;;5.97;2.10;;;;;;;16.24;63.57;101027.97;5095030;28;20032;-68
2022/05/11 04:29:09;;;;;;;4.68;2.08;;;;;;;16.26;63.93;101039.34;5095007;28;20036;-68
2022/05/11 04:31:34;;;;;;;5.38;2.30;;;;;;;16.26;64.43;101034.06;5094627;28;20052;-67
2022/05/11 04:34:00;;;;;;;4.95;2.20;;;;;;;16.32;64.07;101036.47;5094967;28;20090;-66
2022/05/11 04:36:26;;;;;;;4.28;2.22;;;;;;;16.25;63.93;101028.84;5095006;28;20056;-68
2022/05/11 04:38:52;;;;;;;4.45;2.17;;;;;;;16.21;64.24;101027.22;5094861;28;20024;-67
2022/05/11 04:41:18;;;;;;;4.45;2.17;;;;;;;16.16;64.71;101032.63;5094456;28;20040;-67
2022/05/11 04:43:44;;;;;;;4.35;2.65;;;;;;;16.12;64.48;101031.00;5094432;28;20432;-68
2022/05/11 04:46:09;;;;;;;4.15;2.58;;;;;;;16.09;64.71;101033.78;5095025;28;20036;-66
2022/05/11 04:48:34;;;;;;;4.10;2.22;;;;;;;16.11;65.01;101037.19;5094526;28;20111;-67
2022/05/11 04:51:04;;;;;;;4.95;2.25;;;;;;;16.08;64.54;101039.97;5094602;28;20040;-67
2022/05/11 04:53:30;;;;;;;5.30;2.40;;;;;;;16.02;65.15;101025.19;5094781;28;20064;-66
2022/05/11 04:55:56;;;;;;;4.20;2.30;;;;;;;16.16;65.46;101037.91;5094466;28;20055;-65
2022/05/11 04:58:21;;;;;;;3.10;2.15;;;;;;;16.15;64.85;101030.03;5094565;28;20036;-67
2022/05/11 05:00:47;;;;;;;5.70;2.80;;;;;;;16.20;64.80;101030.75;5094340;28;20028;-66
2022/05/11 05:03:14;;;;;;;5.72;2.80;;;;;;;16.23;64.90;101033.31;5094499;28;20043;-68
2022/05/11 05:05:40;;;;;;;6.25;2.90;;;;;;;16.29;64.62;101038.34;5094519;28;20036;-67
2022/05/11 05:08:07;;;;;;;5.18;2.33;;;;;;;16.34;64.74;101039.94;5094244;28;20031;-68
2022/05/11 05:10:32;;;;;;;5.22;2.20;;;;;;;16.35;64.65;101036.38;5096360;28;20451;-67
2022/05/11 05:13:03;;;;;;;6.05;2.60;;;;;;;16.38;64.37;101043.34;5097949;28;20042;-67
2022/05/11 05:15:29;;;;;;;7.67;2.80;;;;;;;16.40;64.52;101035.38;5098113;28;20082;-64
2022/05/11 05:17:55;;;;;;;4.78;2.40;;;;;;;16.39;64.23;101041.56;5097926;28;20132;-65
2022/05/11 05:20:21;;;;;;;4.65;2.50;;;;;;;16.35;64.44;101038.16;5098174;28;20136;-64
2022/05/11 05:22:46;;;;;;;5.95;2.35;;;;;;;16.39;64.40;101039.78;5101586;28;20038;-65
2022/05/11 05:25:11;;;;;;;5.70;2.50;;;;;;;16.38;64.81;101039.84;5115231;28;20402;-65
2022/05/11 05:27:36;;;;;;;3.43;2.47;;;;;;;16.36;64.89;101051.31;5118426;28;20110;-63
2022/05/11 05:32:46;;;;;;;6.05;2.50;;;;;;;16.39;64.32;101054.78;5117328;28;20059;-68
2022/05/11 05:35:16;;;;;;;2.83;2.20;;;;;;;16.48;63.78;101055.31;5118109;28;20032;-67
2022/05/11 05:37:42;;;;;;;6.97;2.63;;;;;;;16.30;64.35;101046.22;5118582;28;20293;-67
2022/05/11 05:40:08;;;;;;;4.00;2.47;;;;;;;16.30;64.67;101040.09;5088571;28;20028;-68
2022/05/11 05:42:34;;;;;;;7.57;2.97;;;;;;;16.39;64.66;101054.78;5118109;28;20031;-67
2022/05/11 05:44:59;;;;;;;7.35;2.72;;;;;;;16.41;64.15;101051.16;5117944;28;20442;-68
2022/05/11 05:47:25;;;;;;;4.47;2.72;;;;;;;16.44;64.62;101053.72;5117776;28;20027;-66
2022/05/11 05:49:50;;;;;;;5.28;2.63;;;;;;;16.55;64.26;101059.47;5117215;28;20039;-66
2022/05/11 05:52:21;;;;;;;5.68;3.15;;;;;;;16.70;63.46;101058.97;5117810;28;20420;-67
2022/05/11 05:54:47;;;;;;;6.63;3.03;;;;;;;16.76;63.00;101060.53;5117722;28;20366;-67
2022/05/11 05:57:13;;;;;;;4.13;2.90;;;;;;;16.81;63.02;101058.59;5117560;28;20303;-68
2022/05/11 05:59:39;;;;;;;5.65;2.85;;;;;;;16.73;62.65;101065.06;5117664;28;20098;-66
2022/05/11 06:02:08;;;;;;;5.05;2.92;;;;;;;16.72;62.58;101064.22;5117517;28;20369;-67
2022/05/11 06:04:33;;;;;;;6.57;2.90;;;;;;;16.64;62.63;101060.94;5117387;28;20053;-67
2022/05/11 06:06:59;;;;;;;5.57;2.60;;;;;;;16.75;61.44;101068.53;5117090;28;20430;-67
2022/05/11 06:09:24;;;;;;;6.38;2.40;;;;;;;16.66;61.69;101069.69;5117435;28;20449;-65
2022/05/11 06:11:49;;;;;;;4.57;2.30;;;;;;;16.62;61.39;101065.44;5117293;28;20032;-67
2022/05/11 06:14:14;;;;;;;3.97;2.40;;;;;;;16.59;62.17;101062.88;5117299;28;20270;-63
2022/05/11 06:16:40;;;;;;;5.43;2.38;;;;;;;16.69;61.69;101051.09;5117452;28;20024;-64
2022/05/11 06:19:05;;;;;;;4.57;2.33;;;;;;;16.70;61.55;101055.47;5117363;28;20043;-64
2022/05/11 06:21:31;;;;;;;5.25;2.08;;;;;;;16.78;61.03;101057.84;5116628;28;20038;-66
2022/05/11 06:23:56;;;;;;;5.38;1.90;;;;;;;16.73;61.87;101060.66;5117071;28;20107;-66
2022/05/11 06:26:22;;;;;;;4.18;1.90;;;;;;;16.75;59.91;101053.53;5113789;28;20031;-67
2022/05/11 06:28:47;;;;;;;6.25;1.88;;;;;;;16.78;59.95;101066.66;5117199;28;20098;-67
2022/05/11 06:31:13;;;;;;;2.55;1.63;;;;;;;16.75;59.32;101055.31;5117040;28;20447;-66
2022/05/11 06:33:39;;;;;;;7.13;1.77;;;;;;;16.75;59.15;101045.59;5116983;28;20031;-66
2022/05/11 06:36:07;;;;;;;3.83;1.63;;;;;;;16.80;59.88;101051.56;5116857;28;20034;-67
2022/05/11 06:38:32;;;;;;;3.72;2.00;;;;;;;16.83;58.95;101035.59;5116976;28;20460;-67
2022/05/11 06:41:05;;;;;;;2.78;1.70;;;;;;;16.88;58.76;101038.09;5116798;28;20039;-66
2022/05/11 06:43:31;;;;;;;5.00;1.58;;;;;;;16.93;57.94;101050.22;5116810;28;20032;-67
2022/05/11 06:45:56;;;;;;;3.20;1.77;;;;;;;17.05;58.00;101043.63;5116663;28;20047;-67
2022/05/11 06:48:22;;;;;;;4.72;1.70;;;;;;;17.07;57.36;101036.50;5116796;28;20023;-66
2022/05/11 06:50:47;;;;;;;6.30;1.80;;;;;;;17.03;58.05;101046.31;5116447;28;20036;-67
2022/05/11 06:53:13;;;;;;;4.35;1.60;;;;;;;17.09;57.73;101047.03;5116451;28;20032;-65
2022/05/11 07:01:11;;;;;;;5.43;1.65;;;;;;;17.42;56.56;101043.09;5096351;28;20070;-67
2022/05/11 07:03:36;;;;;;;5.78;2.10;;;;;;;17.48;56.74;101034.94;5095744;28;20016;-67
2022/05/11 07:06:02;;;;;;;5.18;1.88;;;;;;;17.56;55.90;101048.72;5095794;28;20062;-67
2022/05/11 07:08:40;;;;;;;5.28;2.30;;;;;;;17.55;56.44;101040.84;5095717;28;20077;-66
2022/05/11 07:13:52;;;;;;;6.43;2.83;;;;;;;17.65;56.77;101042.25;5095435;28;20047;-67
2022/05/11 07:16:18;;;;;;;5.45;2.33;;;;;;;17.67;56.42;101046.53;5095618;28;20382;-67
2022/05/11 07:18:45;;;;;;;4.15;2.15;;;;;;;17.73;55.99;101048.94;5095353;28;20028;-66
2022/05/11 07:21:10;;;;;;;6.95;2.25;;;;;;;17.72;56.42;101052.50;5095653;28;20364;-67
2022/05/11 07:23:35;;;;;;;6.35;2.08;;;;;;;17.76;55.53;101045.31;5095176;28;20032;-67
2022/05/11 07:26:01;;;;;;;4.78;2.10;;;;;;;17.75;55.86;101035.66;5094920;28;20405;-67
2022/05/11 07:28:27;;;;;;;4.95;2.20;;;;;;;17.76;56.30;101042.69;5095245;28;20098;-67
2022/05/11 07:30:53;;;;;;;5.38;2.17;;;;;;;17.90;55.95;101042.13;5095174;28;20059;-67
2022/05/11 07:33:18;;;;;;;4.63;2.17;;;;;;;17.98;54.42;101040.03;5094884;28;20024;-67
2022/05/11 07:35:45;;;;;;;5.97;2.40;;;;;;;18.04;54.05;101045.06;5094870;28;20436;-67
2022/05/11 07:38:14;;;;;;;8.45;2.10;;;;;;;18.10;53.63;101039.53;5096998;28;20035;-67
2022/05/11 07:40:41;;;;;;;5.63;2.10;;;;;;;18.02;53.79;101037.16;5114317;28;20116;-67
2022/05/11 07:43:07;;;;;;;7.20;1.95;;;;;;;18.00;52.72;101048.78;5115140;28;20533;-67
2022/05/11 07:45:32;;;;;;;5.78;1.70;;;;;;;18.00;53.01;101047.00;5114380;28;20034;-66
2022/05/11 07:47:58;;;;;;;6.97;1.63;;;;;;;18.11;51.38;101051.84;5111167;28;20351;-59
2022/05/11 07:50:23;;;;;;;5.50;1.70;;;;;;;17.96;52.08;101049.81;5094955;28;20028;-66
2022/05/11 07:52:49;;;;;;;7.03;1.90;;;;;;;17.88;52.16;101042.19;5095073;28;20043;-67
2022/05/11 07:55:16;;;;;;;5.97;2.00;;;;;;;17.76;52.09;101037.38;5094855;28;20325;-64
2022/05/11 08:00:25;;;;;;;5.53;2.10;;;;;;;18.00;51.34;101049.66;5114878;28;20452;-67
2022/05/11 08:02:51;;;;;;;8.20;2.20;;;;;;;18.04;52.33;101045.91;5115181;28;20031;-69
2022/05/11 08:05:18;;;;;;;8.32;2.00;;;;;;;18.03;52.11;101049.50;5115297;28;20057;-68
2022/05/11 08:07:48;;;;;;;4.45;2.05;;;;;;;18.10;52.17;101055.41;5114855;28;20080;-68
2022/05/11 08:10:20;;;;;;;9.38;2.50;;;;;;;18.28;51.94;101054.66;5114754;28;20029;-68
2022/05/11 08:12:46;;;;;;;5.25;2.00;;;;;;;18.30;51.58;101044.84;5115217;28;20054;-60
2022/05/11 08:15:14;;;;;;;7.03;2.22;;;;;;;18.39;51.29;101038.28;5107339;28;20447;-68
2022/05/11 08:17:42;;;;;;;5.75;2.25;;;;;;;18.57;50.82;101041.94;5094741;28;20043;-67
2022/05/11 08:20:18;;;;;;;9.10;2.40;;;;;;;18.77;50.60;101042.81;5094413;28;20032;-67
2022/05/11 08:22:45;;;;;;;5.55;2.00;;;;;;;18.85;50.39;101054.91;5107936;28;20028;-67
2022/05/11 08:25:16;;;;;;;7.15;2.08;;;;;;;18.90;50.32;101048.44;5114836;28;20415;-67
2022/05/11 08:27:41;;;;;;;5.63;2.47;;;;;;;18.96;50.40;101039.38;5115274;28;20059;-68
2022/05/11 08:35:38;;;;;;;4.60;2.33;;;;;;;18.77;51.20;101028.72;5114797;28;20039;-67
2022/05/11 08:38:04;;;;;;;9.23;2.30;;;;;;;18.75;50.38;101033.22;5114922;28;20067;-67
2022/05/11 08:40:37;;;;;;;6.53;2.30;;;;;;;18.90;50.07;101045.78;5111775;28;20036;-68
2022/05/11 08:43:03;;;;;;;6.60;2.88;;;;;;;18.74;50.25;101029.69;5114571;28;20031;-69
2022/05/11 08:45:40;;;;;;;8.63;2.80;;;;;;;18.80;50.51;101033.03;5116265;28;20120;-67
2022/05/11 08:48:16;;;;;;;6.95;2.35;;;;;;;18.92;51.02;101033.31;5118499;28;20454;-69
2022/05/11 08:50:43;;;;;;;7.47;2.53;;;;;;;18.90;50.50;101032.53;5118674;28;20392;-66
2022/05/11 08:53:39;;;;;;;8.10;2.42;;;;;;;19.15;50.29;101044.69;5118960;28;20038;-65
2022/05/11 08:56:12;;;;;;;5.95;2.78;;;;;;;19.07;50.18;101039.72;5097363;28;20047;-68
2022/05/11 08:58:45;;;;;;;6.05;2.65;;;;;;;19.57;49.38;101039.22;5118529;28;20059;-68
2022/05/11 09:01:17;;;;;;;8.13;2.75;;;;;;;20.39;46.49;101021.88;5118758;28;20027;-67
2022/05/11 09:03:45;;;;;;;6.15;2.70;;;;;;;21.50;43.84;101029.22;5118868;28;20031;-67
2022/05/11 09:06:19;;;;;;;6.55;2.47;;;;;;;22.41;42.43;101015.09;5117836;28;20526;-68
2022/05/11 09:08:46;;;;;;;8.50;2.20;;;;;;;23.37;39.94;101017.16;5118337;28;20027;-68
2022/05/11 09:11:15;;;;;;;7.35;2.30;;;;;;;23.77;39.21;101013.63;5117815;28;20047;-68
2022/05/11 09:13:42;;;;;;;6.72;2.33;;;;;;;23.85;38.79;101034.53;5118559;28;20095;-68
2022/05/11 09:16:19;;;;;;;5.25;2.45;;;;;;;23.51;40.15;100998.44;5118145;28;20027;-68
2022/05/11 09:18:45;;;;;;;7.97;2.47;;;;;;;23.31;39.57;101017.53;5117899;28;20020;-68
2022/05/11 09:21:32;;;;;;;7.82;2.47;;;;;;;22.72;41.03;101016.75;5118227;28;20057;-68
2022/05/11 09:24:18;;;;;;;4.88;2.45;;;;;;;22.22;41.97;101007.31;5118619;28;20396;-68
2022/05/11 09:26:46;;;;;;;4.88;2.45;;;;;;;21.89;42.94;101002.97;5118044;28;20024;-68
2022/05/11 09:29:22;;;;;;;6.68;2.70;;;;;;;21.59;43.80;101007.41;5117924;28;20035;-68
2022/05/11 09:31:50;;;;;;;8.88;2.95;;;;;;;21.17;44.57;101014.13;5118425;28;20051;-68
2022/05/11 09:34:36;;;;;;;5.82;2.55;;;;;;;21.15;45.28;101005.38;5117833;28;20024;-68
2022/05/11 09:37:26;;;;;;;8.88;2.58;;;;;;;21.31;45.47;101010.75;5117498;28;20431;-67
2022/05/11 09:39:55;;;;;;;5.85;2.35;;;;;;;21.53;44.60;101005.09;5118161;28;20032;-68
2022/05/11 09:42:29;;;;;;;12.88;2.90;;;;;;;21.63;44.24;101003.63;5117936;28;20024;-68
2022/05/11 09:44:54;;;;;;;6.72;2.70;;;;;;;21.32;44.78;100982.31;5117675;28;20039;-67
2022/05/11 09:47:33;;;;;;;5.95;2.50;;;;;;;21.28;44.69;100994.09;5117823;28;20376;-67
2022/05/11 09:50:17;;;;;;;6.32;2.40;;;;;;;21.07;45.57;100994.31;5117591;28;20039;-68
2022/05/11 09:52:44;;;;;;;8.60;2.20;;;;;;;21.06;45.51;100992.56;5117698;28;20070;-68
2022/05/11 09:55:18;;;;;;;7.10;2.47;;;;;;;21.28;45.73;100994.09;5117408;28;20039;-67
2022/05/11 09:57:53;;;;;;;6.65;2.22;;;;;;;21.54;45.40;100988.16;5117247;28;20035;-68
2022/05/11 10:00:39;;;;;;;8.15;2.33;;;;;;;21.79;44.87;100984.97;5117067;28;20023;-68
2022/05/11 10:03:10;;;;;;;7.25;2.78;;;;;;;21.78;44.31;100985.91;5117181;28;20133;-67
2022/05/11 10:05:42;;;;;;;6.68;2.22;;;;;;;21.86;44.66;100991.63;5114566;28;20088;-67
2022/05/11 10:08:43;;;;;;;8.63;2.58;;;;;;;21.93;44.91;100989.50;5117174;28;20097;-68
2022/05/11 10:11:18;;;;;;;5.93;2.50;;;;;;;21.91;44.57;100984.25;5062712;28;20112;-68
2022/05/11 10:13:51;;;;;;;9.63;2.33;;;;;;;21.73;44.41;100988.84;5116868;28;20027;-68
2022/05/11 10:22:20;;;;;;;6.25;2.70;;;;;;;21.54;44.83;100988.16;5116448;27;20050;-69
2022/05/11 10:25:03;;;;;;;6.30;2.60;;;;;;;21.55;44.97;100987.22;5102458;28;20039;-59
2022/05/11 10:28:02;;;;;;;7.05;2.70;;;;;;;21.89;44.79;100973.69;5105493;28;20038;-61
2022/05/11 10:30:50;;;;;;;6.68;2.40;;;;;;;22.38;44.06;100976.13;5104039;28;20434;-68
2022/05/11 10:33:46;;;;;;;8.70;2.40;;;;;;;22.43;43.41;100973.19;5094066;28;20032;-67
2022/05/11 10:36:24;;;;;;;6.15;2.80;;;;;;;22.41;43.53;100970.59;5116451;27;20036;-69
2022/05/11 10:38:58;;;;;;;8.50;3.20;;;;;;;22.27;42.97;100975.91;5099453;28;20054;-68
2022/05/11 10:41:43;;;;;;;4.40;2.28;;;;;;;22.16;43.23;100965.06;5094693;28;20032;-68
2022/05/11 10:44:31;;;;;;;7.50;2.38;;;;;;;22.29;42.89;100957.16;5101589;28;20042;-68
2022/05/11 10:47:12;;;;;;;7.97;2.67;;;;;;;22.36;42.98;100958.50;5114703;28;20127;-68
2022/05/11 10:50:02;;;;;;;5.32;2.13;;;;;;;22.40;42.67;100963.56;5116187;27;20047;-68
2022/05/11 10:52:52;;;;;;;4.65;2.30;;;;;;;22.57;42.92;100949.19;5114691;28;20035;-68
2022/05/11 10:55:25;;;;;;;7.72;2.67;;;;;;;22.52;41.87;100952.13;5113997;28;20084;-68
2022/05/11 10:57:56;;;;;;;6.28;2.70;;;;;;;22.63;41.69;100958.63;5094343;28;20071;-69
2022/05/11 11:00:22;;;;;;;;;;;;;;;22.69;42.46;100947.56;5095766;28;20036;-71
2022/05/11 11:03:06;;;;;;;6.82;2.47;;;;;;;22.69;42.39;100945.75;5095885;28;19973;-70
2022/05/11 11:05:40;;;;;;;5.28;2.28;;;;;;;22.97;42.02;100950.28;5095935;28;20032;-69
2022/05/11 11:08:08;;;;;;;5.47;2.20;;;;;;;22.86;41.10;100944.72;5095268;28;20032;-71
2022/05/11 11:10:48;;;;;;;9.18;2.50;;;;;;;22.88;41.40;100945.50;5095669;28;20032;-70
2022/05/11 11:13:40;;;;;;;7.70;2.60;;;;;;;23.04;40.94;100938.22;5095500;28;20042;-68
2022/05/11 11:16:12;;;;;;;7.38;2.78;;;;;;;23.05;40.87;100941.75;5095423;28;20039;-68
2022/05/11 11:18:42;;;;;;;7.50;2.60;;;;;;;22.98;39.92;100927.09;5094601;28;20116;-68
2022/05/11 11:21:10;;;;;;;5.78;2.65;;;;;;;22.84;39.52;100939.53;5095106;28;20432;-68
2022/05/11 11:23:40;;;;;;;5.97;2.28;;;;;;;22.83;41.49;100927.13;5095611;28;20032;-68
2022/05/11 11:26:28;;;;;;;8.02;2.63;;;;;;;23.19;40.99;100929.28;5095902;28;20056;-67
2022/05/11 11:28:56;;;;;;;6.38;2.75;;;;;;;23.23;40.06;100924.56;5114231;28;20036;-69
2022/05/11 11:31:23;;;;;;;8.70;2.03;;;;;;;23.53;40.50;100911.94;5115687;28;20055;-65
2022/05/11 11:34:04;;;;;;;5.40;2.20;;;;;;;23.60;40.26;100923.03;5115667;28;20058;-66
2022/05/11 11:36:35;;;;;;;6.68;2.45;;;;;;;23.52;38.90;100914.69;5103238;28;20039;-65
2022/05/11 11:39:06;;;;;;;8.05;2.58;;;;;;;23.38;38.82;100907.53;5095110;28;20517;-66
2022/05/11 11:41:42;;;;;;;4.90;2.10;;;;;;;23.41;38.89;100902.00;5105410;28;20032;-66
2022/05/11 11:44:41;;;;;;;4.55;2.30;;;;;;;23.49;39.17;100904.19;5115723;28;20135;-67
2022/05/11 11:47:26;;;;;;;9.27;2.33;;;;;;;23.48;39.35;100897.13;5115379;28;20024;-60
2022/05/11 11:49:54;;;;;;;7.90;2.70;;;;;;;23.34;38.54;100906.03;5114506;28;20085;-68
2022/05/11 11:52:41;;;;;;;5.10;2.22;;;;;;;23.45;38.62;100897.31;5107091;28;20050;-69
2022/05/11 11:55:27;;;;;;;7.22;2.40;;;;;;;23.52;39.09;100898.66;5115004;28;20028;-60
2022/05/11 11:58:10;;;;;;;7.30;2.38;;;;;;;23.72;37.98;100908.88;5115195;28;20027;-67
2022/05/11 12:00:47;;;;;;;6.40;2.30;;;;;;;23.81;38.28;100891.34;5115282;28;20035;-65
2022/05/11 12:03:18;;;;;;;6.00;2.20;;;;;;;23.89;38.01;100897.91;5115536;28;20027;-67
2022/05/11 12:05:47;;;;;;;14.13;2.92;;;;;;;23.78;38.05;100894.22;5114934;28;20092;-67
2022/05/11 12:16:53;;;;;;;5.28;2.00;;;;;;;23.98;38.09;100872.34;5115196;28;19941;-66
2022/05/11 12:19:20;;;;;;;5.20;2.33;;;;;;;23.86;37.19;100874.06;5115382;28;20035;-68